This is the latest recevied weather packets stored in our database for station/object K5FEP. If no packets are shown the sender has not sent any weather packets the latest 10 day(s).
| Time | Temp. | Humidity | Pressure | Rain* | Wind** | Luminosity | Snow |
|---|---|---|---|---|---|---|---|
| 1787845453 | 28.33° C | 67% | 1015.8 hPa | 0 mm | - | 309 W/m² | - |
| 1787845149 | 28.33° C | 68% | 1015.7 hPa | 0 mm | - | 311 W/m² | - |
| 1787844844 | 28.33° C | 68% | 1015.8 hPa | 0 mm | - | 331 W/m² | - |
| 1787844543 | 28.33° C | 67% | 1016 hPa | 0 mm | - | 311 W/m² | - |
| 1787844238 | 28.89° C | 67% | 1015.8 hPa | 0 mm | - | 322 W/m² | - |
| 1787843937 | 28.89° C | 68% | 1016.1 hPa | 0 mm | - | 306 W/m² | - |
| 1787843633 | 28.89° C | 67% | 1015.9 hPa | 0 mm | - | 315 W/m² | - |
| 1787843329 | 28.33° C | 70% | 1016 hPa | 0 mm | - | 342 W/m² | - |
| 1787843024 | 28.33° C | 69% | 1016 hPa | 0 mm | - | 257 W/m² | - |
| 1787842724 | 28.33° C | 68% | 1016.1 hPa | 0 mm | - | 225 W/m² | - |
| 1787842419 | 28.33° C | 67% | 1015.9 hPa | 0 mm | - | 578 W/m² | - |
| 1787842119 | 28.33° C | 70% | 1016.2 hPa | 0 mm | - | 294 W/m² | - |
| 1787841817 | 27.78° C | 71% | 1016 hPa | 0 mm | - | 489 W/m² | - |
| 1787841510 | 27.78° C | 70% | 1016.2 hPa | 0 mm | - | 347 W/m² | - |
| 1787841209 | 28.33° C | 69% | 1016.1 hPa | 0 mm | - | 343 W/m² | - |
| 1787840904 | 27.78° C | 70% | 1016 hPa | 0 mm | - | 343 W/m² | - |
| 1787840599 | 27.78° C | 71% | 1016 hPa | 0 mm | - | 298 W/m² | - |
| 1787840294 | 27.78° C | 72% | 1016.1 hPa | 0 mm | - | 337 W/m² | - |
| 1787839995 | 27.22° C | 73% | 1016.1 hPa | 0 mm | - | 356 W/m² | - |
| 1787839694 | 27.22° C | 73% | 1015.9 hPa | 0 mm | - | 293 W/m² | - |
| 1787839389 | 26.67° C | 75% | 1015.9 hPa | 0 mm | - | 267 W/m² | - |
| 1787839089 | 27.22° C | 73% | 1016.1 hPa | 0 mm | - | 244 W/m² | - |
| 1787838788 | 27.22° C | 74% | 1016.1 hPa | 0 mm | - | 198 W/m² | - |
| 1787838483 | 26.67° C | 74% | 1016 hPa | 0 mm | - | 258 W/m² | - |
| 1787838183 | 27.22° C | 74% | 1015.9 hPa | 0 mm | - | 198 W/m² | - |
* Rain latest hour (hover to see other rain measurements)
** Current wind speed in m/s (hover to see current wind gust speed)